Etusivu
METAR-TAF:

METAR-TAF

Lentoasemat :

Cartersville Airport

Cartersville, Georgia, Yhdysvallat

Leveyspiiri: 34-07-42N, Pituuspiiri: 084-50-50W, korkeus merenpinnasta: 233 m

Tämänhetkinen sää

Tämä raportti tehtiin 20 minuuttia sitten, kello 13.29 UTC
Tuuli 5 kn kaakosta
Lämpötila 16°C
Kosteus 88%
Ilmanpaine 1021 hPa
Näkyvyys: 9.7 km
Hajanaisia pilviä 600 ft:n korkeudessa
Pilvistä 1800 ft:n korkeudessa
utua

METAR: KVPC 281329Z AUTO 14005KT 6SM BR SCT006 OVC018 16/14 A3016 RMK AO2 T01610139

Aika: 08:49 (13:49 UTC)


TAF: puuttuu

Säähavainnot ja -ennusteet yli 4000 lentoasemalta (METAR- ja TAF-raportit).

Käytössä olevat sääasemat on merkitty karttaan keltaisilla ja punaisilla pisteillä.

Aseta hiiri pisteen päälle nähdäksesi sääaseman nimen.

Klikkaa sitten nähdäksesi säähavainnot ja -ennusteet.

Kartan vaihtaminen: klikkaa mustalla rastilla varustettuja vihreitä pisteitä, niin voit zoomata sisään; viivalla varustettua vihreää pistettä, niin voit zoomata ulos tai vihreitä nuolia, niin pääset viereisille kartoille.


METAR-TAF: